Time;durP1;ratioP1;P1;durP2;ratioP2;P2;SDS_P1;SDS_P2;PMS_P1;PMS_P2;Temp;Humidity;BMP_temperature;BMP_pressure;BME280_temperature;BME280_humidity;BME280_pressure;Samples;Min_cycle;Max_cycle;Signal;HPM_P1;HPM_P2
2022/01/19 00:00:48;;;;;;;;;;;4.00;1.00;;;;;;5096574;28;19956;-80
2022/01/19 00:03:14;;;;;;;;;;;4.00;1.00;;;;;;5088877;28;19924;-79
2022/01/19 00:05:39;;;;;;;;;;;4.00;1.00;;;;;;5093752;28;19919;-79
2022/01/19 00:08:05;;;;;;;;;;;4.00;1.00;;;;;;5089024;28;19916;-79
2022/01/19 00:10:30;;;;;;;;;;;4.00;1.00;;;;;;5122209;27;19912;-79
2022/01/19 00:12:57;;;;;;;;;;;4.00;1.00;;;;;;5084386;28;19994;-79
2022/01/19 00:15:23;;;;;;;;;;;4.00;1.00;;;;;;5119120;28;19918;-79
2022/01/19 00:17:49;;;;;;;;;;;4.00;1.00;;;;;;5093313;28;19920;-79
2022/01/19 00:20:14;;;;;;;;;;;4.00;1.00;;;;;;5112328;28;19916;-80
2022/01/19 00:22:40;;;;;;;;;;;4.00;1.00;;;;;;5113839;28;19958;-79
2022/01/19 00:25:06;;;;;;;;;;;4.00;1.00;;;;;;5089943;28;20359;-79
2022/01/19 00:27:32;;;;;;;;;;;4.00;1.00;;;;;;5116272;28;19912;-79
2022/01/19 00:29:57;;;;;;;;;;;4.00;1.00;;;;;;5108130;28;19939;-79
2022/01/19 00:32:24;;;;;;;;;;;4.00;1.00;;;;;;5087408;28;19908;-80
2022/01/19 00:34:50;;;;;;;;;;;3.90;1.00;;;;;;5095739;28;20326;-81
2022/01/19 00:37:15;;;;;;;;;;;4.00;1.00;;;;;;5104688;28;19912;-79
2022/01/19 00:39:41;;;;;;;;;;;4.00;1.00;;;;;;5114237;28;19982;-80
2022/01/19 00:42:06;;;;;;;;;;;4.00;1.00;;;;;;5089684;28;20287;-79
2022/01/19 00:44:32;;;;;;;;;;;4.00;1.00;;;;;;5098852;28;19919;-79
2022/01/19 00:46:57;;;;;;;;;;;4.00;1.00;;;;;;5097973;28;19974;-79
2022/01/19 00:49:23;;;;;;;;;;;4.00;1.00;;;;;;5111687;28;19958;-79
2022/01/19 00:51:48;;;;;;;;;;;4.00;1.00;;;;;;5110093;28;19964;-79
2022/01/19 00:54:14;;;;;;;;;;;4.10;1.00;;;;;;5114594;28;20347;-79
2022/01/19 00:56:39;;;;;;;;;;;4.10;99.90;;;;;;5110885;28;19915;-79
2022/01/19 00:59:05;;;;;;;;;;;4.10;99.90;;;;;;5111269;28;19912;-79
2022/01/19 01:01:30;;;;;;;;;;;4.10;99.90;;;;;;5090541;28;19916;-79
2022/01/19 01:03:56;;;;;;;;;;;4.10;99.90;;;;;;5108396;28;19965;-79
2022/01/19 01:06:21;;;;;;;;;;;4.00;99.90;;;;;;5106100;28;19912;-79
2022/01/19 01:08:47;;;;;;;;;;;3.90;99.90;;;;;;5091843;28;19965;-79
2022/01/19 01:11:12;;;;;;;;;;;3.90;99.90;;;;;;5114109;28;20345;-79
2022/01/19 01:18:56;;;;;;;;;;;3.80;99.90;;;;;;5106105;28;19919;-79
2022/01/19 01:21:22;;;;;;;;;;;3.80;99.90;;;;;;5112214;27;19911;-80
2022/01/19 01:23:47;;;;;;;;;;;3.80;99.90;;;;;;5109307;28;20265;-79
2022/01/19 01:26:13;;;;;;;;;;;3.70;99.90;;;;;;5106397;28;19912;-79
2022/01/19 01:28:38;;;;;;;;;;;3.70;99.90;;;;;;5111134;28;19912;-79
2022/01/19 01:31:07;;;;;;;;;;;3.60;99.90;;;;;;5115276;28;20221;-79
2022/01/19 01:33:33;;;;;;;;;;;3.60;99.90;;;;;;5097856;28;19911;-79
2022/01/19 01:35:58;;;;;;;;;;;3.60;99.90;;;;;;5106950;28;19985;-79
2022/01/19 01:38:24;;;;;;;;;;;3.60;99.90;;;;;;5115107;28;19916;-79
2022/01/19 01:40:49;;;;;;;;;;;3.50;99.90;;;;;;5108255;28;19912;-79
2022/01/19 01:43:15;;;;;;;;;;;3.50;99.90;;;;;;5114047;28;19922;-79
2022/01/19 01:45:42;;;;;;;;;;;3.40;99.90;;;;;;5086753;28;20564;-79
2022/01/19 01:48:13;;;;;;;;;;;3.40;99.90;;;;;;5115200;28;19919;-80
2022/01/19 01:53:27;;;;;;;;;;;3.30;99.90;;;;;;5109617;28;20375;-79
2022/01/19 01:56:00;;;;;;;;;;;3.30;99.90;;;;;;5108802;28;19912;-79
2022/01/19 01:58:27;;;;;;;;;;;3.20;99.90;;;;;;5115845;28;19911;-79
2022/01/19 02:00:53;;;;;;;;;;;3.10;1.00;;;;;;5089263;28;19951;-79
2022/01/19 02:03:19;;;;;;;;;;;3.10;1.00;;;;;;5112680;28;20003;-79
2022/01/19 02:08:37;;;;;;;;;;;3.20;1.00;;;;;;5105860;28;19916;-79
2022/01/19 02:15:46;;;;;;;;;;;3.20;1.00;;;;;;5094944;28;20375;-80
2022/01/19 02:16:51;;;;;;;;;;;3.10;1.00;;;;;;5108749;28;19918;-79
2022/01/19 02:22:03;;;;;;;;;;;3.10;1.00;;;;;;5110938;28;20006;-79
2022/01/19 02:24:32;;;;;;;;;;;3.00;1.00;;;;;;5107787;28;20288;-79
2022/01/19 02:28:55;;;;;;;;;;;3.00;1.00;;;;;;5097896;28;20530;-79
2022/01/19 02:30:44;;;;;;;;;;;2.90;1.00;;;;;;5106063;28;19945;-80
2022/01/19 02:40:58;;;;;;;;;;;2.90;1.00;;;;;;5110888;28;19918;-79
2022/01/19 02:43:26;;;;;;;;;;;2.90;1.00;;;;;;5092336;28;19912;-79
2022/01/19 02:51:20;;;;;;;;;;;2.90;1.00;;;;;;5107450;28;19918;-79
2022/01/19 02:53:46;;;;;;;;;;;3.00;1.00;;;;;;5088904;28;19912;-80
2022/01/19 02:56:20;;;;;;;;;;;3.00;1.00;;;;;;5096881;28;19911;-79
2022/01/19 02:58:46;;;;;;;;;;;3.00;1.00;;;;;;5096812;28;20023;-79
2022/01/19 03:09:25;;;;;;;;;;;3.30;99.90;;;;;;5114891;28;20299;-79
2022/01/19 03:11:51;;;;;;;;;;;3.30;99.90;;;;;;5106103;28;19912;-79
2022/01/19 03:14:17;;;;;;;;;;;3.30;99.90;;;;;;5103232;28;20035;-80
2022/01/19 03:16:43;;;;;;;;;;;3.30;99.90;;;;;;5101266;28;19912;-79
2022/01/19 03:19:10;;;;;;;;;;;3.30;99.90;;;;;;5108607;28;19934;-79
2022/01/19 03:21:36;;;;;;;;;;;3.30;99.90;;;;;;5114053;28;20325;-79
2022/01/19 03:24:02;;;;;;;;;;;3.30;99.90;;;;;;5093278;28;19936;-79
2022/01/19 03:26:28;;;;;;;;;;;3.30;99.90;;;;;;5110619;28;19912;-79
2022/01/19 03:28:53;;;;;;;;;;;3.30;99.90;;;;;;5101902;28;19951;-79
2022/01/19 03:31:19;;;;;;;;;;;3.30;99.90;;;;;;5115181;28;19911;-79
2022/01/19 03:33:45;;;;;;;;;;;3.40;99.90;;;;;;5108613;28;19916;-79
2022/01/19 03:36:10;;;;;;;;;;;3.40;99.90;;;;;;5113214;28;19911;-79
2022/01/19 03:38:36;;;;;;;;;;;3.40;99.90;;;;;;5114241;28;19916;-79
2022/01/19 03:41:01;;;;;;;;;;;3.50;99.90;;;;;;5104347;28;19912;-79
2022/01/19 03:43:27;;;;;;;;;;;3.50;99.90;;;;;;5088532;28;19912;-79
2022/01/19 03:45:54;;;;;;;;;;;3.50;99.90;;;;;;5095618;28;19943;-79
2022/01/19 03:51:02;;;;;;;;;;;3.60;99.90;;;;;;5109869;28;19972;-79
2022/01/19 03:53:27;;;;;;;;;;;3.60;99.90;;;;;;5089660;28;19912;-79
2022/01/19 03:55:53;;;;;;;;;;;3.60;99.90;;;;;;5103165;28;19911;-79
2022/01/19 03:58:18;;;;;;;;;;;3.60;99.90;;;;;;5104118;28;19918;-79
2022/01/19 04:00:45;;;;;;;;;;;3.70;99.90;;;;;;5114418;28;20344;-79
2022/01/19 04:03:14;;;;;;;;;;;3.70;99.90;;;;;;5104963;28;20275;-79
2022/01/19 04:08:05;;;;;;;;;;;3.80;99.90;;;;;;5109825;28;19963;-79
2022/01/19 04:10:30;;;;;;;;;;;3.80;99.90;;;;;;5120624;27;19912;-79
2022/01/19 04:13:08;;;;;;;;;;;3.80;99.90;;;;;;5106323;28;20514;-79
2022/01/19 04:15:36;;;;;;;;;;;3.80;99.90;;;;;;5116751;28;19916;-79
2022/01/19 04:18:02;;;;;;;;;;;3.80;99.90;;;;;;5095038;28;19983;-79
2022/01/19 04:20:27;;;;;;;;;;;3.80;99.90;;;;;;5085791;28;19952;-79
2022/01/19 04:22:53;;;;;;;;;;;3.80;99.90;;;;;;5100838;28;19908;-79
2022/01/19 04:25:18;;;;;;;;;;;3.90;99.90;;;;;;5089451;28;19912;-79
2022/01/19 04:27:44;;;;;;;;;;;3.90;99.90;;;;;;5110624;28;20356;-79
2022/01/19 04:30:12;;;;;;;;;;;3.90;99.90;;;;;;5085387;28;19940;-79
2022/01/19 04:33:04;;;;;;;;;;;3.90;99.90;;;;;;5112807;28;19919;-79
2022/01/19 04:35:33;;;;;;;;;;;3.90;99.90;;;;;;5109339;28;20299;-79
2022/01/19 04:46:44;;;;;;;;;;;4.00;99.90;;;;;;5107814;28;20569;-79
2022/01/19 05:03:08;;;;;;;;;;;4.10;99.90;;;;;;5109793;28;19950;-79
2022/01/19 05:05:45;;;;;;;;;;;4.20;99.90;;;;;;5096680;28;19919;-79
2022/01/19 05:08:19;;;;;;;;;;;4.20;99.90;;;;;;5096269;28;19916;-80
2022/01/19 05:13:37;;;;;;;;;;;4.20;99.90;;;;;;5115550;28;20347;-79
2022/01/19 05:16:02;;;;;;;;;;;4.20;99.90;;;;;;5094317;28;19912;-79
2022/01/19 05:18:28;;;;;;;;;;;4.20;99.90;;;;;;5114989;28;19909;-79
2022/01/19 05:20:53;;;;;;;;;;;4.20;99.90;;;;;;5120060;28;20388;-79
2022/01/19 05:23:19;;;;;;;;;;;4.10;99.90;;;;;;5116562;28;19918;-79
2022/01/19 05:25:45;;;;;;;;;;;4.10;99.90;;;;;;5105444;28;19911;-79
2022/01/19 05:28:11;;;;;;;;;;;4.10;99.90;;;;;;5107571;28;19934;-79
2022/01/19 05:30:36;;;;;;;;;;;4.10;99.90;;;;;;5108237;28;19915;-79
2022/01/19 05:33:02;;;;;;;;;;;4.10;99.90;;;;;;5115142;28;19959;-79
2022/01/19 05:35:27;;;;;;;;;;;4.10;99.90;;;;;;5098445;28;19926;-79
2022/01/19 05:37:53;;;;;;;;;;;4.10;99.90;;;;;;5120610;28;20287;-79
2022/01/19 05:40:19;;;;;;;;;;;4.00;99.90;;;;;;5111804;28;19998;-79
2022/01/19 05:42:47;;;;;;;;;;;4.10;99.90;;;;;;5110743;28;19926;-79
2022/01/19 05:45:12;;;;;;;;;;;4.10;99.90;;;;;;5089785;28;19919;-79
2022/01/19 05:47:38;;;;;;;;;;;4.10;99.90;;;;;;5119332;28;19967;-79
2022/01/19 05:50:04;;;;;;;;;;;4.10;99.90;;;;;;5100702;28;20276;-79
2022/01/19 05:52:29;;;;;;;;;;;4.10;99.90;;;;;;5118254;28;19908;-79
2022/01/19 05:54:55;;;;;;;;;;;4.10;99.90;;;;;;5118910;28;19912;-80
2022/01/19 05:57:20;;;;;;;;;;;4.10;99.90;;;;;;5116971;28;19982;-79
2022/01/19 05:59:46;;;;;;;;;;;4.10;99.90;;;;;;5092190;28;19912;-79
2022/01/19 06:02:12;;;;;;;;;;;4.20;99.90;;;;;;5115781;28;19908;-80
2022/01/19 06:04:37;;;;;;;;;;;4.10;99.90;;;;;;5099787;28;20422;-79
2022/01/19 06:07:03;;;;;;;;;;;4.20;99.90;;;;;;5100128;28;19912;-80
2022/01/19 06:09:37;;;;;;;;;;;4.20;99.90;;;;;;5117763;28;19919;-79
2022/01/19 06:12:05;;;;;;;;;;;4.20;99.90;;;;;;5098630;28;20003;-79
2022/01/19 06:14:31;;;;;;;;;;;4.20;99.90;;;;;;5115472;28;19911;-80
2022/01/19 06:16:56;;;;;;;;;;;4.20;99.90;;;;;;5087458;28;19939;-79
2022/01/19 06:19:22;;;;;;;;;;;4.20;99.90;;;;;;5099677;28;19919;-80
2022/01/19 06:21:47;;;;;;;;;;;4.20;99.90;;;;;;5096772;28;19961;-79
2022/01/19 06:24:13;;;;;;;;;;;4.20;99.90;;;;;;5098026;28;19908;-79
2022/01/19 06:26:39;;;;;;;;;;;4.20;99.90;;;;;;5116523;28;19911;-79
2022/01/19 06:29:04;;;;;;;;;;;4.20;99.90;;;;;;5116178;28;19924;-79
2022/01/19 06:31:30;;;;;;;;;;;4.20;99.90;;;;;;5099370;28;19980;-79
2022/01/19 06:33:55;;;;;;;;;;;4.20;99.90;;;;;;5116601;28;19983;-79
2022/01/19 06:36:21;;;;;;;;;;;4.20;99.90;;;;;;5117650;28;20459;-79
2022/01/19 06:38:46;;;;;;;;;;;4.20;99.90;;;;;;5115952;28;19922;-79
2022/01/19 06:41:12;;;;;;;;;;;4.20;99.90;;;;;;5117056;28;19953;-79
2022/01/19 06:43:38;;;;;;;;;;;4.20;99.90;;;;;;5111734;28;19911;-80
2022/01/19 06:46:03;;;;;;;;;;;4.30;99.90;;;;;;5098213;28;19952;-79
2022/01/19 06:48:29;;;;;;;;;;;4.30;99.90;;;;;;5098996;28;20376;-79
2022/01/19 06:50:54;;;;;;;;;;;4.30;99.90;;;;;;5116767;28;20387;-80
2022/01/19 06:53:20;;;;;;;;;;;4.30;99.90;;;;;;5116862;28;19908;-79
2022/01/19 06:55:46;;;;;;;;;;;4.30;99.90;;;;;;5098982;28;19911;-79
2022/01/19 06:58:12;;;;;;;;;;;4.40;99.90;;;;;;5098964;28;19959;-79
2022/01/19 07:00:37;;;;;;;;;;;4.40;98.00;;;;;;5116120;28;19912;-79
2022/01/19 07:03:03;;;;;;;;;;;4.40;81.90;;;;;;5102243;28;19926;-81
2022/01/19 07:05:28;;;;;;;;;;;4.50;78.10;;;;;;5125817;28;19912;-81
2022/01/19 07:07:57;;;;;;;;;;;4.60;61.00;;;;;;5114835;28;19916;-80
2022/01/19 07:10:23;;;;;;;;;;;4.60;11.30;;;;;;5094953;28;20371;-80
2022/01/19 07:12:48;;;;;;;;;;;4.70;1.00;;;;;;5120116;28;20377;-82
2022/01/19 07:15:14;;;;;;;;;;;4.80;1.00;;;;;;5103918;28;19979;-81
2022/01/19 07:17:40;;;;;;;;;;;4.80;1.00;;;;;;5125193;28;19938;-81
2022/01/19 07:20:05;;;;;;;;;;;4.90;1.00;;;;;;5106004;28;19908;-81
2022/01/19 07:22:31;;;;;;;;;;;4.90;99.90;;;;;;5122701;28;19934;-80
2022/01/19 07:24:59;;;;;;;;;;;4.90;99.90;;;;;;5124979;28;19912;-80
2022/01/19 07:27:25;;;;;;;;;;;5.00;99.90;;;;;;5105580;28;20006;-81
2022/01/19 07:29:51;;;;;;;;;;;5.00;99.90;;;;;;5109839;28;19922;-81
2022/01/19 07:32:16;;;;;;;;;;;5.00;99.90;;;;;;5128649;28;20620;-83
2022/01/19 07:34:41;;;;;;;;;;;5.00;1.00;;;;;;5132502;28;19912;-81
2022/01/19 07:37:07;;;;;;;;;;;5.10;99.90;;;;;;5110519;28;19937;-81
2022/01/19 07:39:32;;;;;;;;;;;5.10;99.90;;;;;;5108138;28;19954;-81
2022/01/19 07:41:59;;;;;;;;;;;5.10;30.60;;;;;;5127712;28;19923;-80
2022/01/19 07:44:24;;;;;;;;;;;5.10;1.00;;;;;;5108111;28;19916;-81
2022/01/19 07:46:52;;;;;;;;;;;5.10;1.00;;;;;;5123774;28;20002;-81
2022/01/19 07:49:17;;;;;;;;;;;5.10;1.00;;;;;;5105530;28;19959;-80
2022/01/19 07:51:43;;;;;;;;;;;5.20;1.00;;;;;;5127934;28;19912;-80
2022/01/19 07:54:08;;;;;;;;;;;5.20;1.00;;;;;;5110672;28;19912;-80
2022/01/19 07:56:34;;;;;;;;;;;5.20;1.00;;;;;;5110688;28;19931;-81
2022/01/19 07:58:59;;;;;;;;;;;5.20;1.00;;;;;;5128489;28;19912;-80
2022/01/19 08:01:27;;;;;;;;;;;5.20;1.00;;;;;;5111958;28;19951;-81
2022/01/19 08:03:53;;;;;;;;;;;5.20;1.00;;;;;;5128405;28;19922;-80
2022/01/19 08:06:18;;;;;;;;;;;5.20;99.90;;;;;;5111234;28;19967;-80
2022/01/19 08:08:44;;;;;;;;;;;5.20;99.90;;;;;;5118618;27;19924;-80
2022/01/19 08:11:09;;;;;;;;;;;5.20;99.90;;;;;;5104639;28;19998;-80
2022/01/19 08:13:35;;;;;;;;;;;5.20;1.00;;;;;;5119359;28;19912;-80
2022/01/19 08:16:00;;;;;;;;;;;5.30;1.00;;;;;;5095147;28;19908;-80
2022/01/19 08:18:26;;;;;;;;;;;5.30;1.00;;;;;;5105128;28;19919;-80
2022/01/19 08:20:51;;;;;;;;;;;5.30;1.00;;;;;;5112480;28;20420;-80
2022/01/19 08:23:17;;;;;;;;;;;5.30;99.90;;;;;;5112297;28;19911;-80
2022/01/19 08:25:42;;;;;;;;;;;5.30;99.90;;;;;;5111138;28;19995;-80
2022/01/19 08:28:08;;;;;;;;;;;5.30;99.90;;;;;;5112827;28;20459;-80
2022/01/19 08:30:33;;;;;;;;;;;5.30;99.90;;;;;;5113032;28;19923;-80
2022/01/19 08:32:59;;;;;;;;;;;5.30;1.00;;;;;;5112839;28;19933;-80
2022/01/19 08:35:24;;;;;;;;;;;5.40;1.00;;;;;;5113490;28;19911;-81
2022/01/19 08:37:50;;;;;;;;;;;5.40;1.00;;;;;;5114764;28;20302;-80
2022/01/19 08:40:15;;;;;;;;;;;5.40;1.00;;;;;;5110308;28;19938;-80
2022/01/19 08:42:41;;;;;;;;;;;5.40;1.00;;;;;;5121537;27;19957;-80
2022/01/19 08:45:07;;;;;;;;;;;5.50;1.00;;;;;;5113895;28;19918;-81
2022/01/19 08:47:34;;;;;;;;;;;5.50;1.00;;;;;;5112188;28;19912;-81
2022/01/19 08:49:59;;;;;;;;;;;5.50;1.00;;;;;;5114242;28;19918;-80
2022/01/19 08:52:25;;;;;;;;;;;5.50;99.90;;;;;;5132062;28;19912;-80
2022/01/19 08:54:50;;;;;;;;;;;5.50;99.90;;;;;;5129867;28;19951;-80
2022/01/19 08:57:17;;;;;;;;;;;5.60;99.90;;;;;;5106222;28;19943;-80
2022/01/19 08:59:42;;;;;;;;;;;5.60;99.90;;;;;;5130362;28;19916;-81
2022/01/19 09:02:09;;;;;;;;;;;5.60;1.00;;;;;;5113885;28;19912;-81
2022/01/19 09:04:34;;;;;;;;;;;5.70;1.00;;;;;;5110705;28;19915;-80
2022/01/19 09:07:00;;;;;;;;;;;5.70;1.00;;;;;;5113093;28;19907;-80
2022/01/19 09:09:26;;;;;;;;;;;5.80;99.90;;;;;;5130726;28;19973;-81
2022/01/19 09:11:51;;;;;;;;;;;5.80;99.90;;;;;;5111741;28;19908;-80
2022/01/19 09:14:17;;;;;;;;;;;5.90;1.00;;;;;;5104943;28;19912;-80
2022/01/19 09:16:44;;;;;;;;;;;5.90;1.00;;;;;;5114510;28;20525;-80
2022/01/19 09:19:12;;;;;;;;;;;5.90;99.90;;;;;;5113193;28;19928;-81
2022/01/19 09:21:37;;;;;;;;;;;5.90;99.90;;;;;;5123119;28;19919;-80
2022/01/19 09:24:03;;;;;;;;;;;5.90;99.90;;;;;;5122940;28;19908;-81
2022/01/19 09:26:29;;;;;;;;;;;6.00;10.80;;;;;;5112417;28;19937;-80
2022/01/19 09:28:55;;;;;;;;;;;6.00;1.00;;;;;;5113778;28;19938;-81
2022/01/19 09:31:20;;;;;;;;;;;6.00;1.00;;;;;;5108471;28;19912;-80
2022/01/19 09:33:54;;;;;;;;;;;6.00;1.00;;;;;;5130332;27;19923;-81
2022/01/19 09:36:31;;;;;;;;;;;6.00;1.00;;;;;;5111494;28;19908;-81
2022/01/19 09:38:57;;;;;;;;;;;6.00;1.00;;;;;;5110858;28;19916;-81
2022/01/19 09:41:22;;;;;;;;;;;6.00;99.90;;;;;;5110506;28;19911;-81
2022/01/19 09:43:48;;;;;;;;;;;6.00;99.90;;;;;;5111576;28;19908;-81
2022/01/19 09:46:13;;;;;;;;;;;6.00;99.90;;;;;;5114451;28;19912;-80
2022/01/19 09:48:40;;;;;;;;;;;6.00;99.90;;;;;;5123093;28;19955;-81
2022/01/19 09:51:05;;;;;;;;;;;6.00;99.90;;;;;;5108063;28;19919;-81
2022/01/19 09:53:31;;;;;;;;;;;6.00;99.90;;;;;;5130127;28;20185;-80
2022/01/19 09:55:56;;;;;;;;;;;6.00;99.90;;;;;;5094543;28;19915;-81
2022/01/19 09:58:22;;;;;;;;;;;6.10;99.90;;;;;;5109903;28;19915;-80
2022/01/19 10:00:49;;;;;;;;;;;6.20;99.90;;;;;;5113362;28;19904;-80
2022/01/19 10:03:24;;;;;;;;;;;6.20;49.20;;;;;;5132862;28;19912;-81
2022/01/19 10:05:54;;;;;;;;;;;6.30;1.00;;;;;;5107788;28;19908;-80
2022/01/19 10:08:27;;;;;;;;;;;6.40;1.00;;;;;;5114646;28;19939;-80
2022/01/19 10:11:10;;;;;;;;;;;6.40;1.00;;;;;;5116689;28;19915;-80
2022/01/19 10:19:16;;;;;;;;;;;6.50;1.00;;;;;;5119765;28;19934;-81
2022/01/19 10:22:00;;;;;;;;;;;6.60;1.00;;;;;;5115025;28;19934;-81
2022/01/19 10:24:32;;;;;;;;;;;6.60;1.00;;;;;;5123241;27;19939;-81
2022/01/19 10:27:17;;;;;;;;;;;6.60;1.00;;;;;;5101962;28;19912;-81
2022/01/19 10:29:43;;;;;;;;;;;6.60;1.00;;;;;;5115718;28;19900;-82
2022/01/19 10:32:08;;;;;;;;;;;6.60;1.00;;;;;;5115126;28;19912;-80
2022/01/19 10:34:34;;;;;;;;;;;6.60;1.00;;;;;;5124979;28;19908;-80
2022/01/19 10:37:04;;;;;;;;;;;6.60;1.00;;;;;;5112146;28;19943;-80
2022/01/19 10:39:48;;;;;;;;;;;6.60;99.90;;;;;;5115476;28;19927;-80
2022/01/19 10:42:17;;;;;;;;;;;6.60;99.90;;;;;;5107022;28;19927;-80
2022/01/19 10:44:44;;;;;;;;;;;6.60;99.90;;;;;;5102271;28;19938;-80
2022/01/19 10:47:12;;;;;;;;;;;6.60;99.90;;;;;;5129219;28;19912;-80
2022/01/19 10:49:48;;;;;;;;;;;6.50;99.90;;;;;;5132529;28;19971;-80
2022/01/19 10:52:25;;;;;;;;;;;6.50;99.90;;;;;;5115045;28;19918;-80
2022/01/19 10:54:51;;;;;;;;;;;6.40;99.90;;;;;;5112710;28;19912;-80
2022/01/19 10:57:17;;;;;;;;;;;6.40;99.90;;;;;;5114615;28;19943;-80
2022/01/19 10:59:42;;;;;;;;;;;6.40;99.90;;;;;;5117721;28;19998;-80
2022/01/19 11:02:10;;;;;;;;;;;6.40;99.90;;;;;;5103414;28;20368;-80
2022/01/19 11:04:40;;;;;;;;;;;6.50;99.90;;;;;;5103772;28;19934;-80
2022/01/19 11:07:13;;;;;;;;;;;6.50;99.90;;;;;;5097641;28;20366;-80
2022/01/19 11:09:46;;;;;;;;;;;6.50;99.90;;;;;;5110392;28;19983;-80
2022/01/19 11:12:18;;;;;;;;;;;6.60;99.90;;;;;;5116785;28;19919;-80
2022/01/19 11:14:43;;;;;;;;;;;6.60;99.90;;;;;;5121875;27;19949;-80
2022/01/19 11:17:09;;;;;;;;;;;6.60;99.90;;;;;;5140797;27;19911;-81
2022/01/19 11:19:38;;;;;;;;;;;6.60;99.90;;;;;;5136403;28;19919;-79
2022/01/19 11:22:10;;;;;;;;;;;6.60;99.90;;;;;;5132696;28;20379;-80
2022/01/19 11:24:45;;;;;;;;;;;6.60;99.90;;;;;;5115645;28;19923;-81
2022/01/19 11:27:11;;;;;;;;;;;6.60;99.90;;;;;;5133992;28;19916;-81
2022/01/19 11:29:38;;;;;;;;;;;6.50;99.90;;;;;;5117611;28;20000;-80
2022/01/19 11:32:15;;;;;;;;;;;6.50;99.90;;;;;;5117785;28;19919;-80
2022/01/19 11:34:45;;;;;;;;;;;6.50;99.90;;;;;;5117746;28;19908;-80
2022/01/19 11:37:11;;;;;;;;;;;6.50;99.90;;;;;;5117120;28;19900;-80
2022/01/19 11:39:36;;;;;;;;;;;6.50;99.90;;;;;;5105131;28;19938;-81
2022/01/19 11:42:05;;;;;;;;;;;6.40;99.90;;;;;;5101324;28;19953;-81
2022/01/19 11:44:31;;;;;;;;;;;6.40;99.90;;;;;;5122798;28;19918;-80
2022/01/19 11:46:57;;;;;;;;;;;6.30;99.90;;;;;;5115623;28;19912;-80
2022/01/19 11:49:41;;;;;;;;;;;6.30;99.90;;;;;;5144309;27;19923;-80
2022/01/19 11:52:07;;;;;;;;;;;6.30;99.90;;;;;;5105990;28;19908;-80
2022/01/19 11:54:33;;;;;;;;;;;6.30;99.90;;;;;;5116032;28;19912;-80
2022/01/19 11:56:59;;;;;;;;;;;6.20;99.90;;;;;;5116614;28;19912;-80
2022/01/19 11:59:30;;;;;;;;;;;6.20;99.90;;;;;;5129899;28;19912;-80
2022/01/19 12:02:14;;;;;;;;;;;6.20;99.90;;;;;;5113198;28;19912;-80
2022/01/19 12:04:40;;;;;;;;;;;6.20;99.90;;;;;;5129487;27;20240;-80
2022/01/19 12:07:25;;;;;;;;;;;6.30;99.90;;;;;;5115636;28;19929;-80
2022/01/19 12:09:55;;;;;;;;;;;6.30;99.90;;;;;;5133205;28;20017;-80
2022/01/19 12:12:22;;;;;;;;;;;6.30;99.90;;;;;;5114816;28;19915;-80
2022/01/19 12:14:51;;;;;;;;;;;6.30;99.90;;;;;;5115031;28;19916;-80
2022/01/19 12:17:26;;;;;;;;;;;6.30;99.90;;;;;;5103954;28;19909;-80
2022/01/19 12:19:52;;;;;;;;;;;6.30;99.90;;;;;;5106635;28;19946;-80
2022/01/19 12:22:20;;;;;;;;;;;6.30;99.90;;;;;;5101804;28;19908;-80
2022/01/19 12:25:06;;;;;;;;;;;6.30;99.90;;;;;;5111931;28;19916;-80
2022/01/19 12:27:35;;;;;;;;;;;6.30;99.90;;;;;;5104755;28;19912;-80
2022/01/19 12:30:09;;;;;;;;;;;6.30;99.90;;;;;;5128897;28;19939;-80
2022/01/19 12:32:39;;;;;;;;;;;6.40;99.90;;;;;;5118527;28;19908;-80
2022/01/19 12:35:05;;;;;;;;;;;6.40;99.90;;;;;;5135539;28;19908;-81
2022/01/19 12:37:37;;;;;;;;;;;6.50;99.90;;;;;;5114967;28;19922;-80
2022/01/19 12:40:18;;;;;;;;;;;6.50;99.90;;;;;;5133230;27;19926;-80
2022/01/19 12:42:47;;;;;;;;;;;6.50;99.90;;;;;;5115634;28;19975;-80
2022/01/19 12:45:26;;;;;;;;;;;6.50;99.90;;;;;;5114006;28;19942;-80
2022/01/19 12:47:51;;;;;;;;;;;6.50;99.90;;;;;;5115887;28;19916;-80
2022/01/19 12:50:16;;;;;;;;;;;6.50;99.90;;;;;;5132958;28;19923;-80
2022/01/19 12:52:44;;;;;;;;;;;6.50;99.90;;;;;;5128102;28;19896;-80
2022/01/19 12:55:17;;;;;;;;;;;6.40;99.90;;;;;;5107758;28;20368;-80
2022/01/19 12:57:43;;;;;;;;;;;6.40;99.90;;;;;;5114329;28;20028;-80
2022/01/19 13:00:10;;;;;;;;;;;6.40;99.90;;;;;;5126596;28;19923;-80
2022/01/19 13:02:35;;;;;;;;;;;6.40;99.90;;;;;;5112642;28;19912;-80
2022/01/19 13:05:12;;;;;;;;;;;6.40;99.90;;;;;;5110899;28;19943;-79
2022/01/19 13:07:39;;;;;;;;;;;6.40;99.90;;;;;;5140474;27;19912;-81
2022/01/19 13:10:34;;;;;;;;;;;6.40;99.90;;;;;;5110345;28;19938;-81
2022/01/19 13:13:10;;;;;;;;;;;6.40;99.90;;;;;;5123445;28;19955;-80
2022/01/19 13:15:43;;;;;;;;;;;6.40;99.90;;;;;;5112838;28;19911;-80
2022/01/19 13:18:09;;;;;;;;;;;6.40;99.90;;;;;;5123739;28;19993;-80
2022/01/19 13:20:35;;;;;;;;;;;6.40;99.90;;;;;;5106387;28;19954;-79
2022/01/19 13:23:04;;;;;;;;;;;6.40;99.90;;;;;;5124164;27;19935;-81
2022/01/19 13:25:30;;;;;;;;;;;6.40;99.90;;;;;;5122206;28;20391;-80
2022/01/19 13:27:57;;;;;;;;;;;6.30;99.90;;;;;;5126747;28;19911;-80
2022/01/19 13:30:24;;;;;;;;;;;6.20;99.90;;;;;;5115536;28;19916;-80
2022/01/19 13:32:50;;;;;;;;;;;6.10;99.90;;;;;;5120556;28;20003;-80
2022/01/19 13:35:16;;;;;;;;;;;6.00;1.00;;;;;;5110707;28;19916;-79
2022/01/19 13:37:46;;;;;;;;;;;6.00;1.00;;;;;;5099908;28;19912;-81
2022/01/19 13:40:12;;;;;;;;;;;6.00;99.90;;;;;;5120119;28;19912;-80
2022/01/19 13:42:50;;;;;;;;;;;5.90;99.90;;;;;;5104477;28;19908;-80
2022/01/19 13:45:24;;;;;;;;;;;5.90;1.00;;;;;;5126310;28;19996;-80
2022/01/19 13:47:55;;;;;;;;;;;5.90;1.00;;;;;;5108402;27;19907;-80
2022/01/19 13:50:21;;;;;;;;;;;5.80;99.90;;;;;;5095626;28;19923;-79
2022/01/19 13:52:47;;;;;;;;;;;5.80;99.90;;;;;;5103900;28;20165;-81
2022/01/19 13:55:16;;;;;;;;;;;5.70;99.90;;;;;;5113628;28;20000;-80
2022/01/19 13:57:42;;;;;;;;;;;5.70;1.00;;;;;;5109166;28;20327;-80
2022/01/19 14:00:15;;;;;;;;;;;5.60;1.00;;;;;;5125109;28;19907;-81
2022/01/19 14:02:52;;;;;;;;;;;5.60;9.00;;;;;;5098674;28;19904;-80
2022/01/19 14:05:17;;;;;;;;;;;5.60;99.90;;;;;;5101262;28;20019;-80
2022/01/19 14:07:46;;;;;;;;;;;5.60;99.90;;;;;;5100850;28;20387;-79
2022/01/19 14:10:12;;;;;;;;;;;5.60;99.90;;;;;;5130929;28;19911;-80
2022/01/19 14:12:37;;;;;;;;;;;5.60;99.90;;;;;;5130234;28;19939;-79
2022/01/19 14:15:05;;;;;;;;;;;5.60;99.90;;;;;;5124607;28;19920;-80
2022/01/19 14:17:33;;;;;;;;;;;5.60;99.90;;;;;;5139813;27;19904;-79
2022/01/19 14:20:00;;;;;;;;;;;5.50;99.90;;;;;;5121517;28;19935;-80
2022/01/19 14:22:33;;;;;;;;;;;5.50;99.90;;;;;;5111122;28;19915;-80
2022/01/19 14:25:08;;;;;;;;;;;5.50;99.90;;;;;;5122291;27;19908;-80
2022/01/19 14:27:43;;;;;;;;;;;5.40;99.90;;;;;;5128132;28;19982;-80
2022/01/19 14:30:14;;;;;;;;;;;5.40;99.90;;;;;;5123799;28;19926;-80
2022/01/19 14:32:43;;;;;;;;;;;5.40;99.90;;;;;;5102726;28;19959;-80
2022/01/19 14:35:20;;;;;;;;;;;5.30;99.90;;;;;;5124742;28;19918;-80
2022/01/19 14:38:05;;;;;;;;;;;5.30;99.90;;;;;;5114852;28;19912;-80
2022/01/19 14:40:31;;;;;;;;;;;5.30;99.90;;;;;;5100458;28;19916;-80
2022/01/19 14:42:57;;;;;;;;;;;5.30;99.90;;;;;;5128920;28;19908;-80
2022/01/19 14:45:26;;;;;;;;;;;5.30;99.90;;;;;;5106273;28;19947;-80
2022/01/19 14:47:54;;;;;;;;;;;5.30;99.90;;;;;;5097245;28;19999;-80
2022/01/19 14:50:27;;;;;;;;;;;5.30;99.90;;;;;;5109148;28;19938;-80
2022/01/19 14:52:54;;;;;;;;;;;5.30;99.90;;;;;;5100224;28;19912;-80
2022/01/19 14:55:21;;;;;;;;;;;5.30;1.00;;;;;;5111268;28;19971;-80
2022/01/19 14:57:47;;;;;;;;;;;5.30;1.00;;;;;;5110829;28;19934;-80
2022/01/19 15:00:14;;;;;;;;;;;5.30;1.00;;;;;;5120765;28;20002;-80
2022/01/19 15:02:39;;;;;;;;;;;5.30;1.00;;;;;;5121891;28;19976;-80
2022/01/19 15:05:05;;;;;;;;;;;5.30;1.00;;;;;;5100935;28;19912;-80
2022/01/19 15:07:30;;;;;;;;;;;5.30;1.00;;;;;;5101181;28;19912;-80
2022/01/19 15:09:56;;;;;;;;;;;5.30;1.00;;;;;;5108251;28;19957;-81
2022/01/19 15:12:22;;;;;;;;;;;5.30;1.00;;;;;;5120636;28;19912;-80
2022/01/19 15:14:47;;;;;;;;;;;5.30;1.00;;;;;;5125108;28;19939;-80
2022/01/19 15:17:13;;;;;;;;;;;5.30;1.00;;;;;;5122878;28;19938;-81
2022/01/19 15:19:38;;;;;;;;;;;5.30;1.00;;;;;;5115407;28;19970;-80
2022/01/19 15:22:04;;;;;;;;;;;5.30;1.00;;;;;;5108269;28;19912;-80
2022/01/19 15:24:30;;;;;;;;;;;5.30;1.00;;;;;;5096517;28;19918;-80
2022/01/19 15:26:56;;;;;;;;;;;5.30;1.00;;;;;;5104688;28;20004;-81
2022/01/19 15:29:21;;;;;;;;;;;5.30;1.00;;;;;;5102611;28;19931;-80
2022/01/19 15:31:50;;;;;;;;;;;5.20;1.00;;;;;;5100494;28;19911;-80
2022/01/19 15:34:19;;;;;;;;;;;5.20;1.00;;;;;;5105682;28;20346;-80
2022/01/19 15:36:44;;;;;;;;;;;5.20;1.00;;;;;;5116218;28;19912;-80
2022/01/19 15:39:10;;;;;;;;;;;5.10;1.00;;;;;;5125274;28;19922;-80
2022/01/19 15:41:39;;;;;;;;;;;5.10;1.00;;;;;;5105170;28;19912;-81
2022/01/19 15:44:04;;;;;;;;;;;5.10;1.00;;;;;;5097622;28;19916;-80
2022/01/19 15:46:30;;;;;;;;;;;5.10;1.00;;;;;;5116131;28;19923;-80
2022/01/19 15:48:55;;;;;;;;;;;5.10;1.00;;;;;;5120270;28;20244;-81
2022/01/19 15:51:21;;;;;;;;;;;5.00;1.00;;;;;;5097945;28;19912;-80